KNQX/NQX METAR and TAF weather

Enter ICAO airport designator
Station Type Date Time Source
KNQX METAR 2019/02/16 17:53 UTC NOAA

KNQX 161753Z 17013KT 10SM FEW030 FEW250 28/19 A2994 RMK AO2 SLP136 T02830194 10283 20239 58020 $


Station Type Date Time Source
KNQX Decoded METAR 2019/02/16 17:53 UTC NOAA

KEY WEST NAVAL AIR STATION, FL, United States (KNQX) 24-35N 81-41W 6M
Feb 16, 2019 - 12:53 PM EST / 2019.02.16 1753 UTC
Wind: from the S (170 degrees) at 15 MPH (13 KT):0
Visibility: 10 mile(s):0
Sky conditions: mostly clear
Temperature: 82.9 F (28.3 C)
Dew Point: 66.9 F (19.4 C)
Relative Humidity: 58%
Pressure (altimeter): 29.94 in. Hg (1013 hPa)
Pressure tendency: 0.06 inches (2.0 hPa) lower than three hours ago
ob: KNQX 161753Z 17013KT 10SM FEW030 FEW250 28/19 A2994 RMK AO2 SLP136 T02830194 10283 20239 58020
cycle: 18

Station Type Date Time Source
KNQX TAF 2019/02/16 15:57 UTC NOAA

TAF KNQX 1615/1715 VRB06KT 9999 SCT030 QNH2985INS
BECMG 1711/1713 16008KT QNH2991INS T27/1619Z T23/1709Z FN00205


Example: see airport list